Time;durP1;ratioP1;P1;durP2;ratioP2;P2;SDS_P1;SDS_P2;PMS_P1;PMS_P2;Temp;Humidity;BMP_temperature;BMP_pressure;BME280_temperature;BME280_humidity;BME280_pressure;Samples;Min_cycle;Max_cycle;Signal;HPM_P1;HPM_P2
2022/09/19 00:02:00;;;;;;;3.63;2.10;;;9.20;99.90;;;;;;4965245;28;20211;-72
2022/09/19 00:04:31;;;;;;;3.00;2.03;;;9.20;99.90;;;;;;4957399;28;20302;-72
2022/09/19 00:07:00;;;;;;;3.42;2.47;;;9.10;99.90;;;;;;4956542;28;20188;-71
2022/09/19 00:09:31;;;;;;;2.80;2.00;;;9.10;99.90;;;;;;4939940;29;20254;-72
2022/09/19 00:12:02;;;;;;;3.83;2.13;;;9.00;99.90;;;;;;4956721;29;20196;-72
2022/09/19 00:14:34;;;;;;;4.40;1.75;;;9.00;99.90;;;;;;4954224;28;20224;-71
2022/09/19 00:17:07;;;;;;;2.92;2.28;;;9.00;99.90;;;;;;4960656;28;20297;-70
2022/09/19 00:19:37;;;;;;;3.03;1.65;;;9.00;99.90;;;;;;4954610;29;20658;-72
2022/09/19 00:22:09;;;;;;;7.25;1.70;;;9.10;99.90;;;;;;4957255;29;20243;-71
2022/09/19 00:24:46;;;;;;;3.30;1.90;;;9.10;99.90;;;;;;4966839;28;20224;-71
2022/09/19 00:27:19;;;;;;;4.15;2.35;;;9.10;99.90;;;;;;4953216;29;20467;-72
2022/09/19 00:29:49;;;;;;;3.67;1.60;;;9.10;99.90;;;;;;4946902;28;20243;-72
2022/09/19 00:32:17;;;;;;;12.82;2.60;;;9.00;99.90;;;;;;4957048;29;20740;-72
2022/09/19 00:34:53;;;;;;;3.97;3.13;;;9.00;99.90;;;;;;4939383;29;20224;-74
2022/09/19 00:37:22;;;;;;;3.45;2.10;;;9.00;99.90;;;;;;4955864;29;20204;-71
2022/09/19 00:39:52;;;;;;;6.18;3.47;;;9.00;99.90;;;;;;4955660;28;20192;-71
2022/09/19 00:42:25;;;;;;;3.35;2.13;;;9.00;99.90;;;;;;4939031;29;20208;-72
2022/09/19 00:44:57;;;;;;;6.18;2.58;;;9.10;99.90;;;;;;4941020;28;20224;-70
2022/09/19 00:47:33;;;;;;;3.38;2.55;;;9.00;99.90;;;;;;4951421;28;20204;-70
2022/09/19 00:50:07;;;;;;;5.80;2.58;;;9.00;99.90;;;;;;4953132;29;20608;-71
2022/09/19 00:52:43;;;;;;;4.70;3.07;;;9.00;99.90;;;;;;4941792;29;20714;-73
2022/09/19 00:55:12;;;;;;;8.32;4.25;;;8.90;99.90;;;;;;4954954;28;20518;-74
2022/09/19 00:58:08;;;;;;;5.60;4.85;;;8.90;99.90;;;;;;4952343;29;20696;-72
2022/09/19 01:00:38;;;;;;;6.07;4.40;;;8.90;99.90;;;;;;4939978;29;20754;-72
2022/09/19 01:03:09;;;;;;;7.57;2.78;;;8.90;99.90;;;;;;4954551;28;20703;-71
2022/09/19 01:05:48;;;;;;;4.03;3.40;;;8.90;99.90;;;;;;4954802;28;20247;-72
2022/09/19 01:08:46;;;;;;;2.85;2.30;;;8.90;99.90;;;;;;4956315;28;20226;-72
2022/09/19 01:11:33;;;;;;;3.17;2.75;;;8.90;99.90;;;;;;4954427;28;20715;-72
2022/09/19 01:14:11;;;;;;;4.22;3.42;;;8.90;99.90;;;;;;4947044;29;20254;-71
2022/09/19 01:16:43;;;;;;;5.25;3.40;;;8.90;99.90;;;;;;4955224;29;20266;-72
2022/09/19 01:19:30;;;;;;;7.47;2.70;;;8.90;99.90;;;;;;4951997;28;20203;-72
2022/09/19 01:22:06;;;;;;;6.72;2.67;;;8.90;99.90;;;;;;4938996;29;20447;-72
2022/09/19 01:24:56;;;;;;;7.40;2.53;;;8.80;99.90;;;;;;4957013;28;20558;-71
2022/09/19 01:27:43;;;;;;;9.07;3.07;;;8.80;99.90;;;;;;4937619;28;20263;-72
2022/09/19 01:30:15;;;;;;;4.93;2.90;;;8.90;99.90;;;;;;4935795;29;20419;-72
2022/09/19 01:32:52;;;;;;;8.07;3.15;;;8.90;99.90;;;;;;4954766;28;20463;-72
2022/09/19 01:35:26;;;;;;;4.68;2.95;;;8.90;99.90;;;;;;4954294;28;20314;-71
2022/09/19 01:38:00;;;;;;;3.70;2.40;;;8.90;99.90;;;;;;4953926;29;20691;-73
2022/09/19 01:40:29;;;;;;;4.10;2.33;;;8.90;99.90;;;;;;4931182;29;20216;-72
2022/09/19 01:43:02;;;;;;;4.70;2.92;;;8.90;99.90;;;;;;4936981;29;20295;-72
2022/09/19 01:45:36;;;;;;;6.97;3.78;;;8.90;99.90;;;;;;4943397;29;20295;-72
2022/09/19 01:48:16;;;;;;;6.65;2.70;;;9.00;99.90;;;;;;4942001;29;20195;-72
2022/09/19 01:51:12;;;;;;;3.10;2.42;;;9.00;99.90;;;;;;4959812;28;20211;-72
2022/09/19 01:53:58;;;;;;;4.70;3.20;;;8.90;99.90;;;;;;4939963;28;20589;-73
2022/09/19 01:56:58;;;;;;;4.27;2.07;;;9.00;99.90;;;;;;4945385;29;20218;-70
2022/09/19 01:59:47;;;;;;;3.47;1.95;;;9.00;99.90;;;;;;4941152;29;20880;-72
2022/09/19 02:02:28;;;;;;;8.20;2.67;;;9.00;99.90;;;;;;4949916;28;20200;-73
2022/09/19 02:05:04;;;;;;;9.35;3.83;;;9.00;99.90;;;;;;4952151;28;20211;-72
2022/09/19 02:07:43;;;;;;;8.90;3.13;;;8.90;99.90;;;;;;4942417;29;20655;-73
2022/09/19 02:10:19;;;;;;;3.28;2.08;;;9.00;99.90;;;;;;4953324;29;20251;-72
2022/09/19 02:12:52;;;;;;;5.97;2.75;;;8.90;99.90;;;;;;4944735;29;20259;-73
2022/09/19 02:15:48;;;;;;;5.43;3.10;;;9.00;99.90;;;;;;4950045;28;20299;-72
2022/09/19 02:18:24;;;;;;;6.28;3.30;;;9.00;99.90;;;;;;4939958;28;20211;-72
2022/09/19 02:21:00;;;;;;;12.93;3.22;;;9.00;99.90;;;;;;4936981;29;20203;-72
2022/09/19 02:23:30;;;;;;;6.23;3.37;;;9.00;99.90;;;;;;4957869;28;20234;-72
2022/09/19 02:26:03;;;;;;;11.30;4.28;;;8.90;99.90;;;;;;4937142;29;20503;-72
2022/09/19 02:28:38;;;;;;;4.95;3.00;;;9.00;99.90;;;;;;4934033;29;20225;-71
2022/09/19 02:31:12;;;;;;;5.00;3.83;;;9.00;99.90;;;;;;4930516;29;20223;-72
2022/09/19 02:33:47;;;;;;;6.17;3.80;;;9.00;99.90;;;;;;4937263;29;20306;-74
2022/09/19 02:36:26;;;;;;;9.98;5.43;;;8.90;99.90;;;;;;4947753;28;20555;-72
2022/09/19 02:39:01;;;;;;;4.53;3.00;;;8.90;99.90;;;;;;4942541;28;20243;-72
2022/09/19 02:42:08;;;;;;;8.07;3.97;;;8.90;99.90;;;;;;4953906;29;20722;-72
2022/09/19 02:44:48;;;;;;;7.35;4.80;;;9.00;99.90;;;;;;4955827;29;20218;-72
2022/09/19 02:47:24;;;;;;;8.15;3.60;;;9.00;99.90;;;;;;4946623;29;20196;-72
2022/09/19 02:49:58;;;;;;;7.25;3.80;;;8.90;99.90;;;;;;4938503;28;20561;-72
2022/09/19 02:52:30;;;;;;;5.95;3.38;;;9.00;99.90;;;;;;4958644;28;20212;-72
2022/09/19 02:55:09;;;;;;;6.77;4.33;;;9.10;99.90;;;;;;4938649;29;20255;-71
2022/09/19 02:57:39;;;;;;;8.65;4.75;;;9.10;99.90;;;;;;4955631;29;20891;-72
2022/09/19 03:00:11;;;;;;;5.95;3.00;;;9.00;99.90;;;;;;4953264;23;20210;-72
2022/09/19 03:02:44;;;;;;;4.50;3.20;;;9.00;99.90;;;;;;4957344;28;20677;-72
2022/09/19 03:05:20;;;;;;;6.47;3.80;;;9.10;99.90;;;;;;4953211;29;20698;-72
2022/09/19 03:07:55;;;;;;;5.35;2.67;;;9.10;99.90;;;;;;4955163;28;20204;-72
2022/09/19 03:10:29;;;;;;;4.83;3.40;;;9.20;99.90;;;;;;4938286;29;20251;-72
2022/09/19 03:13:08;;;;;;;5.10;4.57;;;9.20;99.90;;;;;;4969414;28;20502;-71
2022/09/19 03:15:42;;;;;;;4.50;3.22;;;9.20;99.90;;;;;;4953734;29;20227;-72
2022/09/19 03:18:14;;;;;;;11.23;4.35;;;9.10;99.90;;;;;;4952854;29;20301;-72
2022/09/19 03:20:48;;;;;;;5.53;4.23;;;9.20;99.90;;;;;;4954242;28;20191;-72
2022/09/19 03:23:20;;;;;;;5.13;3.40;;;9.20;99.90;;;;;;4948423;29;20454;-72
2022/09/19 03:25:49;;;;;;;7.00;4.10;;;9.20;99.90;;;;;;4953953;28;20501;-71
2022/09/19 03:28:19;;;;;;;12.00;4.67;;;9.20;99.90;;;;;;4952904;28;20447;-71
2022/09/19 03:30:50;;;;;;;4.60;4.10;;;9.20;99.90;;;;;;4967387;28;20435;-72
2022/09/19 03:33:19;;;;;;;6.05;4.15;;;9.30;99.90;;;;;;4952710;29;20691;-72
2022/09/19 03:35:51;;;;;;;6.20;3.35;;;9.30;99.90;;;;;;4953549;28;20231;-72
2022/09/19 03:38:21;;;;;;;7.23;4.93;;;9.40;99.90;;;;;;4954381;28;20695;-72
2022/09/19 03:40:50;;;;;;;9.37;4.90;;;9.40;99.90;;;;;;4964924;28;20466;-71
2022/09/19 03:43:20;;;;;;;8.55;4.55;;;9.40;99.90;;;;;;4933745;29;20434;-72
2022/09/19 03:45:48;;;;;;;5.57;4.57;;;9.50;99.90;;;;;;4942416;29;20702;-72
2022/09/19 03:48:18;;;;;;;7.83;5.03;;;9.50;99.90;;;;;;4952512;29;20222;-72
2022/09/19 03:50:49;;;;;;;10.95;4.93;;;9.50;99.90;;;;;;4960958;28;20436;-71
2022/09/19 03:53:19;;;;;;;9.18;4.45;;;9.40;99.90;;;;;;4953116;28;20227;-71
2022/09/19 03:55:48;;;;;;;8.40;5.43;;;9.40;99.90;;;;;;4962323;28;20295;-72
2022/09/19 03:58:17;;;;;;;8.10;5.28;;;9.40;99.90;;;;;;4968284;28;20467;-72
2022/09/19 04:00:46;;;;;;;13.93;5.50;;;9.40;99.90;;;;;;4952707;29;20298;-71
2022/09/19 04:03:17;;;;;;;5.37;4.57;;;9.40;99.90;;;;;;4952962;28;20552;-72
2022/09/19 04:05:46;;;;;;;8.50;5.47;;;9.40;99.90;;;;;;4965963;28;20465;-72
2022/09/19 04:08:31;;;;;;;14.60;4.73;;;9.40;99.90;;;;;;4961174;28;20453;-72
2022/09/19 04:11:00;;;;;;;7.27;4.70;;;9.40;99.90;;;;;;4964057;28;20443;-72
2022/09/19 04:13:31;;;;;;;8.43;5.87;;;9.40;99.90;;;;;;4946324;29;20423;-72
2022/09/19 04:16:06;;;;;;;7.53;5.57;;;9.40;99.90;;;;;;4933815;29;20811;-71
2022/09/19 04:18:35;;;;;;;6.65;4.80;;;9.40;99.90;;;;;;4952454;29;20831;-72
2022/09/19 04:21:04;;;;;;;7.57;5.30;;;9.40;99.90;;;;;;4944519;29;20208;-72
2022/09/19 04:23:48;;;;;;;11.63;5.30;;;9.30;99.90;;;;;;4968564;28;20670;-71
2022/09/19 04:26:44;;;;;;;6.50;5.27;;;9.30;99.90;;;;;;4952403;29;20429;-72
2022/09/19 04:29:12;;;;;;;7.80;6.15;;;9.30;99.90;;;;;;4953875;28;20398;-72
2022/09/19 04:31:42;;;;;;;6.80;4.15;;;9.30;99.90;;;;;;4949276;29;20205;-71
2022/09/19 04:34:14;;;;;;;10.13;7.40;;;9.40;99.90;;;;;;4948762;29;20232;-71
2022/09/19 04:36:48;;;;;;;4.13;3.45;;;9.40;99.90;;;;;;4952232;29;20192;-71
2022/09/19 04:39:18;;;;;;;6.60;4.65;;;9.40;99.90;;;;;;4954428;28;20227;-72
2022/09/19 04:41:48;;;;;;;6.10;4.85;;;9.40;99.90;;;;;;4972019;28;20188;-72
2022/09/19 04:44:16;;;;;;;7.47;5.00;;;9.50;99.90;;;;;;4955885;28;20239;-72
2022/09/19 04:47:00;;;;;;;7.93;5.10;;;9.50;99.90;;;;;;4948794;28;20447;-71
2022/09/19 04:49:34;;;;;;;7.90;5.67;;;9.50;99.90;;;;;;4956611;29;20410;-72
2022/09/19 04:52:02;;;;;;;7.33;5.60;;;9.50;99.90;;;;;;4957957;28;20434;-72
2022/09/19 04:54:35;;;;;;;8.83;5.50;;;9.60;99.90;;;;;;4956090;29;20473;-72
2022/09/19 04:57:05;;;;;;;5.93;5.03;;;9.50;99.90;;;;;;4957878;28;20440;-72
2022/09/19 04:59:35;;;;;;;13.00;6.20;;;9.50;99.90;;;;;;4956578;28;20478;-72
2022/09/19 05:02:06;;;;;;;7.43;5.10;;;9.50;99.90;;;;;;4955181;29;20432;-71
2022/09/19 05:04:38;;;;;;;6.87;5.93;;;9.50;99.90;;;;;;4962852;28;20529;-71
2022/09/19 05:07:08;;;;;;;6.97;6.07;;;9.50;99.90;;;;;;4956486;28;20459;-72
2022/09/19 05:09:42;;;;;;;7.47;4.80;;;9.50;99.90;;;;;;4968392;28;20454;-72
2022/09/19 05:12:12;;;;;;;8.00;5.30;;;9.50;99.90;;;;;;4950070;29;20926;-72
2022/09/19 05:14:51;;;;;;;9.37;6.53;;;9.60;99.90;;;;;;4955369;29;20467;-72
2022/09/19 05:17:20;;;;;;;5.10;4.60;;;9.70;99.90;;;;;;4958459;28;20471;-71
2022/09/19 05:19:49;;;;;;;10.70;5.23;;;9.70;99.90;;;;;;4957067;28;20498;-72
2022/09/19 05:22:17;;;;;;;11.20;5.10;;;9.80;99.90;;;;;;4958684;29;20527;-73
2022/09/19 05:24:47;;;;;;;7.30;5.40;;;9.90;99.90;;;;;;4956899;29;20547;-72
2022/09/19 05:27:16;;;;;;;8.97;7.40;;;9.90;99.90;;;;;;4957226;29;20450;-72
2022/09/19 05:29:45;;;;;;;8.70;5.50;;;9.90;99.90;;;;;;4951342;29;20489;-71
2022/09/19 05:32:14;;;;;;;6.57;4.90;;;10.00;99.90;;;;;;4943753;29;20426;-72
2022/09/19 05:34:48;;;;;;;7.90;5.30;;;10.00;99.90;;;;;;4955489;28;20479;-71
2022/09/19 05:37:44;;;;;;;11.93;6.23;;;10.00;99.90;;;;;;4970034;28;20813;-71
2022/09/19 05:40:53;;;;;;;9.30;5.30;;;10.00;99.90;;;;;;4942604;29;20466;-71
2022/09/19 05:43:38;;;;;;;7.63;5.13;;;10.00;99.90;;;;;;4934176;29;20531;-71
2022/09/19 05:46:08;;;;;;;8.80;6.50;;;10.10;99.90;;;;;;4952642;28;20491;-71
2022/09/19 05:48:38;;;;;;;14.03;6.40;;;10.10;99.90;;;;;;4964116;28;20875;-71
2022/09/19 05:51:07;;;;;;;8.57;4.63;;;10.10;99.90;;;;;;4953600;28;20441;-72
2022/09/19 05:53:55;;;;;;;7.90;5.50;;;10.10;99.90;;;;;;4962527;28;20819;-72
2022/09/19 05:56:35;;;;;;;9.23;5.10;;;10.20;99.90;;;;;;4964415;28;20438;-71
2022/09/19 05:59:09;;;;;;;9.70;5.47;;;10.20;99.90;;;;;;4951004;28;20977;-71
2022/09/19 06:01:39;;;;;;;5.57;4.23;;;10.30;99.90;;;;;;4948471;28;20466;-71
2022/09/19 06:04:15;;;;;;;7.60;4.60;;;10.30;99.90;;;;;;4954080;28;20441;-71
2022/09/19 06:06:44;;;;;;;5.93;3.93;;;10.40;99.90;;;;;;4966664;28;20427;-71
2022/09/19 06:09:13;;;;;;;6.20;4.30;;;10.40;99.90;;;;;;4949629;28;20432;-71
2022/09/19 06:11:44;;;;;;;5.53;4.70;;;10.50;99.90;;;;;;4963476;28;20913;-71
2022/09/19 06:14:15;;;;;;;5.27;4.30;;;10.50;99.90;;;;;;4948547;29;20522;-71
2022/09/19 06:16:46;;;;;;;5.03;4.27;;;10.50;99.90;;;;;;4964005;28;21017;-71
2022/09/19 06:19:36;;;;;;;6.90;3.10;;;10.50;99.90;;;;;;4954809;29;20448;-71
2022/09/19 06:22:12;;;;;;;5.83;4.10;;;10.60;99.90;;;;;;4951952;29;20425;-71
2022/09/19 06:24:42;;;;;;;4.00;3.43;;;10.60;99.90;;;;;;4961333;28;20438;-71
2022/09/19 06:27:14;;;;;;;5.17;3.90;;;10.60;99.90;;;;;;4953844;29;20936;-70
2022/09/19 06:29:46;;;;;;;4.20;3.40;;;10.70;99.90;;;;;;4954143;28;20837;-71
2022/09/19 06:32:27;;;;;;;5.10;3.43;;;10.70;99.90;;;;;;4938317;29;20423;-71
2022/09/19 06:35:23;;;;;;;4.03;3.60;;;10.70;99.90;;;;;;4956091;28;20500;-72
2022/09/19 06:38:00;;;;;;;5.53;3.00;;;10.80;99.90;;;;;;4974582;28;20770;-71
2022/09/19 06:40:29;;;;;;;3.70;3.33;;;10.90;99.90;;;;;;4960682;28;20447;-71
2022/09/19 06:43:22;;;;;;;7.13;3.17;;;11.00;99.90;;;;;;4941046;29;20456;-72
2022/09/19 06:46:12;;;;;;;5.90;3.07;;;10.90;99.90;;;;;;4955990;28;20448;-71
2022/09/19 06:49:02;;;;;;;6.63;3.03;;;11.00;99.90;;;;;;4958141;28;20423;-72
2022/09/19 06:51:39;;;;;;;3.60;2.70;;;11.00;99.90;;;;;;4961135;29;20425;-72
2022/09/19 06:54:09;;;;;;;3.17;2.80;;;11.10;99.90;;;;;;4958938;28;20960;-70
2022/09/19 06:56:39;;;;;;;5.00;3.23;;;11.10;99.90;;;;;;4968417;28;20604;-71
2022/09/19 06:59:11;;;;;;;2.60;2.40;;;11.10;99.90;;;;;;4953996;29;20530;-71
2022/09/19 07:01:40;;;;;;;3.53;3.23;;;11.20;99.90;;;;;;4952869;29;20773;-72
2022/09/19 07:04:10;;;;;;;7.73;3.97;;;11.30;99.90;;;;;;4951022;28;21005;-72
2022/09/19 07:07:08;;;;;;;9.83;3.70;;;11.40;99.90;;;;;;4941350;29;21035;-71
2022/09/19 07:09:43;;;;;;;4.83;2.83;;;11.60;99.90;;;;;;4952776;28;20443;-71
2022/09/19 07:12:12;;;;;;;3.07;2.77;;;11.70;99.90;;;;;;4952632;28;20881;-72
2022/09/19 07:14:49;;;;;;;6.93;2.77;;;11.80;99.90;;;;;;4968036;28;20482;-71
2022/09/19 07:17:18;;;;;;;2.40;2.20;;;11.80;99.90;;;;;;4951938;28;20975;-71
2022/09/19 07:19:50;;;;;;;4.33;3.30;;;11.90;99.90;;;;;;4952716;29;20446;-71
2022/09/19 07:22:27;;;;;;;2.70;2.43;;;12.00;99.90;;;;;;4954298;28;20398;-71
2022/09/19 07:25:08;;;;;;;10.80;2.97;;;12.00;99.90;;;;;;4952034;29;20453;-71
2022/09/19 07:27:43;;;;;;;6.83;2.40;;;12.00;99.90;;;;;;4956457;28;21060;-72
2022/09/19 07:30:16;;;;;;;3.40;2.50;;;12.00;99.90;;;;;;4952062;28;20448;-72
2022/09/19 07:32:45;;;;;;;3.00;2.33;;;12.00;99.90;;;;;;4942774;29;20414;-70
2022/09/19 07:35:14;;;;;;;2.27;2.07;;;12.00;99.90;;;;;;4952817;29;20442;-71
2022/09/19 07:37:49;;;;;;;2.67;1.90;;;12.00;99.90;;;;;;4968444;28;20459;-71
2022/09/19 07:40:40;;;;;;;7.23;2.83;;;12.00;99.90;;;;;;4959667;28;20450;-72
2022/09/19 07:43:20;;;;;;;9.13;2.27;;;12.00;99.90;;;;;;4958279;29;20514;-72
2022/09/19 07:45:52;;;;;;;3.60;2.20;;;12.10;99.90;;;;;;4952274;28;20792;-71
2022/09/19 07:48:43;;;;;;;2.70;2.50;;;12.10;99.90;;;;;;4953815;28;20811;-72
2022/09/19 07:51:38;;;;;;;9.33;2.47;;;12.20;99.90;;;;;;4944002;29;20451;-72
2022/09/19 07:54:07;;;;;;;3.00;1.73;;;12.50;99.90;;;;;;4952008;29;20557;-72
2022/09/19 07:56:35;;;;;;;3.60;3.30;;;12.40;99.90;;;;;;4951929;29;20423;-71
2022/09/19 07:59:04;;;;;;;2.07;1.80;;;12.40;99.90;;;;;;4959342;28;20452;-72
2022/09/19 08:01:52;;;;;;;5.43;2.87;;;12.60;99.90;;;;;;4952088;28;20439;-72
2022/09/19 08:04:48;;;;;;;5.30;2.13;;;12.60;99.90;;;;;;4951021;28;21072;-71
2022/09/19 08:07:17;;;;;;;2.70;2.50;;;12.70;99.90;;;;;;4954780;28;20440;-71
2022/09/19 08:09:46;;;;;;;2.40;1.73;;;12.80;99.90;;;;;;4948388;29;20414;-72
2022/09/19 08:12:19;;;;;;;1.90;1.43;;;12.80;99.90;;;;;;4947824;29;20839;-72
2022/09/19 08:14:56;;;;;;;4.50;2.53;;;12.90;99.90;;;;;;4960463;28;20450;-72
2022/09/19 08:17:27;;;;;;;4.37;3.27;;;13.00;99.90;;;;;;4962956;28;20562;-72
2022/09/19 08:19:57;;;;;;;3.20;1.70;;;13.00;28.60;;;;;;4955776;29;20446;-71
2022/09/19 08:22:26;;;;;;;3.23;1.83;;;13.00;1.00;;;;;;4957067;28;20402;-72
2022/09/19 08:25:03;;;;;;;4.17;1.50;;;13.10;99.90;;;;;;4958003;28;20446;-71
2022/09/19 08:27:33;;;;;;;2.10;1.77;;;13.20;99.90;;;;;;4955841;28;20451;-72
2022/09/19 08:30:02;;;;;;;1.90;1.23;;;13.30;99.90;;;;;;4968919;28;20949;-72
2022/09/19 08:32:34;;;;;;;2.03;1.83;;;13.40;99.90;;;;;;4959802;28;20467;-72
2022/09/19 08:35:05;;;;;;;4.00;1.60;;;13.50;99.90;;;;;;4957992;28;20486;-72
2022/09/19 08:37:33;;;;;;;2.37;1.53;;;13.60;99.90;;;;;;4964615;28;20463;-72
2022/09/19 08:40:18;;;;;;;1.93;1.47;;;13.70;99.90;;;;;;4955032;28;20475;-72
2022/09/19 08:43:08;;;;;;;9.53;8.03;;;13.60;99.90;;;;;;4956213;28;20427;-73
2022/09/19 08:46:21;;;;;;;2.10;1.33;;;13.80;99.90;;;;;;4968876;28;20498;-72
2022/09/19 08:48:59;;;;;;;2.90;1.30;;;13.90;99.90;;;;;;4958972;28;20454;-73
2022/09/19 08:51:34;;;;;;;1.30;1.00;;;14.00;99.90;;;;;;4969039;28;20445;-72
2022/09/19 08:54:15;;;;;;;1.80;1.43;;;14.00;99.90;;;;;;4970979;28;20860;-73
2022/09/19 08:56:45;;;;;;;1.80;1.57;;;14.00;99.90;;;;;;4954428;29;20533;-72
2022/09/19 08:59:16;;;;;;;4.20;1.57;;;14.00;99.90;;;;;;4953818;28;20969;-71
2022/09/19 09:02:02;;;;;;;5.13;2.03;;;14.00;99.90;;;;;;4977628;23;20477;-74
2022/09/19 09:05:12;;;;;;;2.43;0.90;;;14.30;99.90;;;;;;4977460;28;20791;-75
2022/09/19 09:07:50;;;;;;;1.23;0.97;;;14.20;99.90;;;;;;4962597;28;20467;-76
2022/09/19 09:10:50;;;;;;;1.50;1.40;;;14.30;99.90;;;;;;4977066;28;20494;-75
2022/09/19 09:13:33;;;;;;;4.70;1.10;;;14.30;99.90;;;;;;4958250;28;20453;-74
2022/09/19 09:16:30;;;;;;;2.40;1.03;;;14.60;99.90;;;;;;4981060;23;20457;-72
2022/09/19 09:19:10;;;;;;;1.47;1.27;;;14.70;99.90;;;;;;4946948;29;20915;-73
2022/09/19 09:21:51;;;;;;;2.30;1.60;;;14.90;99.90;;;;;;4955564;28;20463;-72
2022/09/19 09:24:31;;;;;;;5.33;1.33;;;15.10;99.90;;;;;;4940353;29;20862;-74
2022/09/19 09:27:27;;;;;;;3.03;1.23;;;15.20;94.30;;;;;;4939314;28;20438;-73
2022/09/19 09:30:07;;;;;;;1.93;1.63;;;15.20;93.50;;;;;;4940992;29;20422;-74
2022/09/19 09:32:44;;;;;;;2.90;1.47;;;15.10;93.10;;;;;;4945592;29;20438;-72
2022/09/19 09:35:31;;;;;;;3.07;1.20;;;15.40;81.20;;;;;;4942991;28;20490;-73
2022/09/19 09:38:13;;;;;;;1.20;0.97;;;15.50;77.70;;;;;;4947913;29;20799;-73
2022/09/19 09:43:44;;;;;;;1.47;1.00;;;15.90;58.60;;;;;;4975726;28;20443;-73
2022/09/19 09:46:24;;;;;;;1.87;1.10;;;15.80;51.60;;;;;;4973243;28;20835;-73
2022/09/19 09:48:53;;;;;;;2.60;1.10;;;15.60;54.90;;;;;;4947104;29;20487;-73
2022/09/19 09:51:32;;;;;;;2.87;1.50;;;15.10;86.30;;;;;;4950249;29;20422;-72
2022/09/19 09:57:07;;;;;;;2.00;1.27;;;13.80;99.90;;;;;;4949854;29;20426;-71
2022/09/19 10:05:39;;;;;;;1.87;0.67;;;12.30;99.90;;;;;;4942266;29;20946;-72
2022/09/19 10:08:18;;;;;;;2.60;0.90;;;11.90;99.90;;;;;;4961127;29;20444;-72
2022/09/19 10:10:53;;;;;;;1.67;1.07;;;11.80;99.90;;;;;;4951034;29;20450;-71
2022/09/19 10:13:27;;;;;;;2.60;1.17;;;11.60;1.00;;;;;;4959120;29;20422;-72
2022/09/19 10:16:02;;;;;;;2.30;1.07;;;11.50;98.10;;;;;;4953863;29;21034;-72
2022/09/19 10:18:43;;;;;;;1.60;0.90;;;11.40;1.00;;;;;;4953941;29;20445;-73
2022/09/19 10:21:15;;;;;;;2.80;0.90;;;11.20;99.90;;;;;;4944210;29;20453;-71
2022/09/19 10:23:49;;;;;;;3.90;1.37;;;11.00;99.90;;;;;;4949005;28;20475;-72
2022/09/19 10:26:30;;;;;;;1.10;0.60;;;10.90;99.90;;;;;;4966295;28;20461;-72
2022/09/19 10:29:14;;;;;;;1.80;0.83;;;10.70;99.90;;;;;;4946785;29;20430;-69
2022/09/19 10:32:07;;;;;;;2.70;0.80;;;10.50;99.90;;;;;;4956454;29;20426;-71
2022/09/19 10:35:26;;;;;;;1.40;0.77;;;10.30;99.90;;;;;;4950108;29;20499;-72
2022/09/19 10:38:06;;;;;;;2.37;1.23;;;10.30;99.90;;;;;;4968851;28;20446;-73
2022/09/19 10:40:34;;;;;;;2.30;0.90;;;10.10;99.90;;;;;;4955539;29;20964;-73
2022/09/19 10:43:04;;;;;;;1.53;0.80;;;10.00;99.90;;;;;;4943540;29;20444;-73
2022/09/19 10:45:36;;;;;;;5.20;1.13;;;10.00;1.00;;;;;;4956780;29;20475;-72
2022/09/19 10:48:13;;;;;;;1.70;0.80;;;10.00;1.00;;;;;;4956650;28;20495;-73
2022/09/19 10:50:44;;;;;;;1.80;1.00;;;10.10;99.90;;;;;;4964436;29;20453;-72
2022/09/19 10:53:19;;;;;;;3.43;0.90;;;10.10;1.00;;;;;;4961063;28;20438;-72
2022/09/19 10:55:48;;;;;;;2.40;1.10;;;10.10;99.90;;;;;;4954659;29;20686;-72
2022/09/19 10:58:22;;;;;;;1.30;0.83;;;10.20;99.90;;;;;;4962456;28;20978;-73
2022/09/19 11:01:08;;;;;;;3.33;1.23;;;10.30;99.90;;;;;;4952923;28;21023;-74
2022/09/19 11:03:59;;;;;;;1.50;1.40;;;10.40;99.90;;;;;;4942863;28;20455;-73
2022/09/19 11:06:29;;;;;;;3.10;1.60;;;10.60;1.00;;;;;;4960126;28;20441;-73
2022/09/19 11:08:58;;;;;;;1.73;1.10;;;10.70;1.00;;;;;;4953509;28;20424;-72
2022/09/19 11:11:47;;;;;;;1.70;1.37;;;10.90;1.00;;;;;;4938629;29;20426;-73
2022/09/19 11:14:37;;;;;;;1.43;1.13;;;11.20;99.90;;;;;;4961226;28;20433;-74
2022/09/19 11:17:55;;;;;;;1.97;1.20;;;11.80;94.90;;;;;;4936821;29;20426;-74
2022/09/19 11:20:49;;;;;;;2.20;1.03;;;12.30;99.90;;;;;;4952817;29;20422;-74
2022/09/19 11:23:40;;;;;;;1.30;0.93;;;12.80;99.90;;;;;;4961792;28;20440;-73
2022/09/19 11:26:20;;;;;;;4.40;1.07;;;13.30;29.70;;;;;;4958284;29;20482;-73
2022/09/19 11:29:04;;;;;;;1.67;1.00;;;13.70;99.90;;;;;;4946568;29;20418;-74
2022/09/19 11:31:43;;;;;;;1.30;1.00;;;14.00;99.90;;;;;;4946414;29;20523;-74
2022/09/19 11:34:46;;;;;;;1.47;1.23;;;14.40;99.90;;;;;;4943833;29;20828;-74
2022/09/19 11:37:41;;;;;;;2.10;1.00;;;14.80;99.90;;;;;;4938548;29;20438;-73
2022/09/19 11:40:27;;;;;;;2.33;1.63;;;14.90;99.90;;;;;;4953694;29;20437;-72
2022/09/19 11:43:11;;;;;;;1.43;1.10;;;14.90;99.90;;;;;;4956213;28;21066;-72
2022/09/19 11:45:56;;;;;;;3.53;1.60;;;15.00;99.90;;;;;;4959444;28;20466;-73
2022/09/19 11:48:55;;;;;;;1.10;0.80;;;15.30;99.90;;;;;;4954181;28;20481;-72
2022/09/19 11:51:34;;;;;;;2.40;1.00;;;15.70;99.90;;;;;;4957832;28;20470;-73
2022/09/19 11:54:17;;;;;;;2.03;1.07;;;15.60;99.90;;;;;;4942265;29;20973;-73
2022/09/19 11:57:07;;;;;;;2.70;1.00;;;15.80;99.90;;;;;;4936495;29;20435;-72
2022/09/19 12:00:02;;;;;;;2.20;0.70;;;16.00;99.90;;;;;;4952192;28;20444;-73
2022/09/19 12:02:58;;;;;;;1.30;0.80;;;15.50;71.10;;;;;;4954571;29;20563;-73
2022/09/19 12:05:49;;;;;;;1.87;0.77;;;14.30;48.70;;;;;;4956172;29;20441;-70
2022/09/19 12:08:32;;;;;;;2.23;0.70;;;13.50;61.80;;;;;;4961586;29;20436;-73
2022/09/19 12:11:08;;;;;;;3.00;2.70;;;13.10;73.20;;;;;;4969426;28;20457;-74
2022/09/19 12:13:44;;;;;;;3.43;0.93;;;12.90;97.30;;;;;;4946596;29;20469;-74
2022/09/19 12:16:20;;;;;;;1.80;1.03;;;12.70;99.90;;;;;;4933646;29;20526;-73
2022/09/19 12:19:03;;;;;;;1.10;0.60;;;12.50;99.90;;;;;;4933208;29;20425;-72
2022/09/19 12:21:40;;;;;;;1.37;0.70;;;12.40;99.90;;;;;;4945003;29;20927;-73
2022/09/19 12:27:09;;;;;;;1.30;0.60;;;12.00;99.90;;;;;;4956364;28;20447;-73
2022/09/19 12:29:44;;;;;;;1.93;1.40;;;11.90;99.90;;;;;;4938137;29;20547;-74
2022/09/19 12:32:22;;;;;;;1.93;0.90;;;11.90;99.90;;;;;;4937406;29;20436;-73
2022/09/19 12:35:00;;;;;;;1.43;0.90;;;11.80;99.90;;;;;;4938014;29;20908;-72
2022/09/19 12:37:40;;;;;;;4.10;0.90;;;11.80;99.90;;;;;;4948937;29;20471;-72
2022/09/19 12:40:19;;;;;;;1.30;0.90;;;11.80;1.00;;;;;;4937424;29;20521;-72
2022/09/19 12:42:56;;;;;;;1.90;0.80;;;11.90;99.90;;;;;;4937023;29;20484;-72
2022/09/19 12:45:31;;;;;;;2.20;1.10;;;11.90;1.00;;;;;;4937059;29;20951;-73
2022/09/19 12:48:12;;;;;;;2.90;1.10;;;12.00;1.00;;;;;;4930103;29;20487;-73
2022/09/19 12:51:07;;;;;;;7.77;1.47;;;12.00;99.90;;;;;;4944041;28;20531;-73
2022/09/19 12:53:41;;;;;;;4.57;1.77;;;12.10;99.90;;;;;;4954041;28;20433;-73
2022/09/19 12:56:15;;;;;;;2.17;1.50;;;12.10;99.90;;;;;;4949427;29;20522;-74
2022/09/19 12:58:58;;;;;;;2.80;1.53;;;12.00;1.00;;;;;;4952202;28;20421;-73
2022/09/19 13:01:32;;;;;;;3.47;1.90;;;11.90;1.00;;;;;;4951340;28;20851;-73
2022/09/19 13:04:25;;;;;;;3.53;1.70;;;11.80;1.00;;;;;;4965627;28;20436;-72
2022/09/19 13:06:56;;;;;;;4.00;1.03;;;11.80;99.90;;;;;;4951049;28;20403;-73
2022/09/19 13:09:34;;;;;;;4.40;1.40;;;11.80;1.00;;;;;;4957554;28;20413;-73
2022/09/19 13:12:13;;;;;;;2.13;1.30;;;11.70;47.80;;;;;;4950388;28;20421;-73
2022/09/19 13:14:49;;;;;;;2.30;1.10;;;11.70;42.50;;;;;;4955529;29;20438;-73
2022/09/19 13:25:51;;;;;;;5.07;1.83;;;12.00;1.00;;;;;;4950232;28;20439;-73
2022/09/19 13:28:44;;;;;;;14.77;2.30;;;12.00;1.00;;;;;;4962492;28;20398;-73
2022/09/19 13:31:15;;;;;;;2.17;1.50;;;12.10;1.00;;;;;;4955399;29;20426;-73
2022/09/19 13:33:47;;;;;;;2.17;1.47;;;12.00;98.70;;;;;;4953595;29;20407;-73
2022/09/19 13:36:18;;;;;;;2.90;1.47;;;11.90;1.00;;;;;;4951890;28;20434;-73
2022/09/19 13:38:51;;;;;;;4.27;1.33;;;11.80;1.00;;;;;;4958658;29;20414;-73
2022/09/19 13:41:27;;;;;;;1.77;0.90;;;11.80;23.10;;;;;;4959239;29;20410;-73
2022/09/19 13:44:03;;;;;;;2.03;1.30;;;11.90;99.90;;;;;;4950557;29;20479;-73
2022/09/19 13:46:39;;;;;;;2.33;1.60;;;11.90;1.00;;;;;;4971273;28;20524;-72
2022/09/19 13:49:15;;;;;;;2.60;1.57;;;12.00;99.90;;;;;;4950876;29;20823;-72
2022/09/19 13:51:53;;;;;;;2.80;1.33;;;12.10;52.90;;;;;;4969391;28;20417;-72
2022/09/19 13:54:44;;;;;;;10.30;5.90;;;12.20;1.00;;;;;;4969637;28;20504;-72
2022/09/19 13:57:19;;;;;;;5.40;3.40;;;12.10;1.00;;;;;;4956266;28;20501;-73
2022/09/19 13:59:55;;;;;;;2.30;1.37;;;12.10;99.90;;;;;;4961114;28;20423;-72
2022/09/19 14:02:28;;;;;;;3.43;1.67;;;12.00;1.00;;;;;;4964277;28;20449;-73
2022/09/19 14:05:08;;;;;;;2.03;1.50;;;12.00;1.00;;;;;;4962339;28;20442;-72
2022/09/19 14:07:45;;;;;;;3.40;1.50;;;12.10;1.00;;;;;;4964198;28;20432;-72